sensor_id;sensor_type;location;lat;lon;timestamp;P1;durP1;ratioP1;P2;durP2;ratioP2
71236;SDS011;58984;51.960;5.582;2024-03-08T00:00:14;37.70;;;21.80;;
71236;SDS011;58984;51.960;5.582;2024-03-08T00:02:42;36.60;;;21.50;;
71236;SDS011;58984;51.960;5.582;2024-03-08T00:05:09;39.85;;;22.25;;
71236;SDS011;58984;51.960;5.582;2024-03-08T00:07:35;33.75;;;21.95;;
71236;SDS011;58984;51.960;5.582;2024-03-08T00:10:02;41.08;;;23.08;;
71236;SDS011;58984;51.960;5.582;2024-03-08T00:12:32;41.17;;;22.95;;
71236;SDS011;58984;51.960;5.582;2024-03-08T00:14:58;41.55;;;21.20;;
71236;SDS011;58984;51.960;5.582;2024-03-08T00:17:23;35.50;;;21.65;;
71236;SDS011;58984;51.960;5.582;2024-03-08T00:19:50;35.00;;;21.98;;
71236;SDS011;58984;51.960;5.582;2024-03-08T00:22:16;38.65;;;22.20;;
71236;SDS011;58984;51.960;5.582;2024-03-08T00:24:42;41.10;;;21.30;;
71236;SDS011;58984;51.960;5.582;2024-03-08T00:27:09;36.53;;;21.90;;
71236;SDS011;58984;51.960;5.582;2024-03-08T00:29:35;30.92;;;20.33;;
71236;SDS011;58984;51.960;5.582;2024-03-08T00:32:00;40.88;;;22.23;;
71236;SDS011;58984;51.960;5.582;2024-03-08T00:34:26;37.47;;;21.23;;
71236;SDS011;58984;51.960;5.582;2024-03-08T00:36:52;33.08;;;21.20;;
71236;SDS011;58984;51.960;5.582;2024-03-08T00:39:18;40.60;;;23.58;;
71236;SDS011;58984;51.960;5.582;2024-03-08T00:41:46;32.78;;;19.73;;
71236;SDS011;58984;51.960;5.582;2024-03-08T00:44:12;38.20;;;22.88;;
71236;SDS011;58984;51.960;5.582;2024-03-08T00:46:38;38.10;;;21.13;;
71236;SDS011;58984;51.960;5.582;2024-03-08T00:49:04;36.70;;;21.83;;
71236;SDS011;58984;51.960;5.582;2024-03-08T00:51:29;34.80;;;20.42;;
71236;SDS011;58984;51.960;5.582;2024-03-08T00:53:55;36.28;;;21.60;;
71236;SDS011;58984;51.960;5.582;2024-03-08T00:56:21;39.17;;;22.40;;
71236;SDS011;58984;51.960;5.582;2024-03-08T00:58:46;37.20;;;22.02;;
71236;SDS011;58984;51.960;5.582;2024-03-08T01:01:15;42.42;;;22.13;;
71236;SDS011;58984;51.960;5.582;2024-03-08T01:03:42;36.33;;;21.23;;
71236;SDS011;58984;51.960;5.582;2024-03-08T01:06:08;35.60;;;22.48;;
71236;SDS011;58984;51.960;5.582;2024-03-08T01:08:34;35.00;;;22.48;;
71236;SDS011;58984;51.960;5.582;2024-03-08T01:11:00;40.38;;;21.85;;
71236;SDS011;58984;51.960;5.582;2024-03-08T01:13:25;33.40;;;21.67;;
71236;SDS011;58984;51.960;5.582;2024-03-08T01:15:51;41.05;;;21.83;;
71236;SDS011;58984;51.960;5.582;2024-03-08T01:18:16;40.03;;;22.05;;
71236;SDS011;58984;51.960;5.582;2024-03-08T01:20:42;33.10;;;20.60;;
71236;SDS011;58984;51.960;5.582;2024-03-08T01:23:08;36.00;;;21.00;;
71236;SDS011;58984;51.960;5.582;2024-03-08T01:25:34;37.22;;;21.38;;
71236;SDS011;58984;51.960;5.582;2024-03-08T01:27:59;41.20;;;22.23;;
71236;SDS011;58984;51.960;5.582;2024-03-08T01:30:25;37.20;;;22.58;;
71236;SDS011;58984;51.960;5.582;2024-03-08T01:32:51;36.28;;;22.77;;
71236;SDS011;58984;51.960;5.582;2024-03-08T01:35:16;35.22;;;21.27;;
71236;SDS011;58984;51.960;5.582;2024-03-08T01:37:43;35.67;;;21.52;;
71236;SDS011;58984;51.960;5.582;2024-03-08T01:40:09;37.45;;;22.40;;
71236;SDS011;58984;51.960;5.582;2024-03-08T01:42:34;39.28;;;22.70;;
71236;SDS011;58984;51.960;5.582;2024-03-08T01:45:04;36.95;;;22.52;;
71236;SDS011;58984;51.960;5.582;2024-03-08T01:47:31;35.35;;;21.50;;
71236;SDS011;58984;51.960;5.582;2024-03-08T01:49:58;30.90;;;21.55;;
71236;SDS011;58984;51.960;5.582;2024-03-08T01:52:28;36.50;;;21.38;;
71236;SDS011;58984;51.960;5.582;2024-03-08T01:54:56;36.85;;;22.38;;
71236;SDS011;58984;51.960;5.582;2024-03-08T01:57:26;39.50;;;22.23;;
71236;SDS011;58984;51.960;5.582;2024-03-08T01:59:53;32.50;;;21.33;;
71236;SDS011;58984;51.960;5.582;2024-03-08T02:02:20;44.28;;;22.92;;
71236;SDS011;58984;51.960;5.582;2024-03-08T02:04:47;36.47;;;20.73;;
71236;SDS011;58984;51.960;5.582;2024-03-08T02:07:13;36.70;;;21.15;;
71236;SDS011;58984;51.960;5.582;2024-03-08T02:09:38;35.22;;;23.10;;
71236;SDS011;58984;51.960;5.582;2024-03-08T02:12:04;40.53;;;21.80;;
71236;SDS011;58984;51.960;5.582;2024-03-08T02:14:30;39.30;;;21.77;;
71236;SDS011;58984;51.960;5.582;2024-03-08T02:17:00;37.25;;;22.52;;
71236;SDS011;58984;51.960;5.582;2024-03-08T02:19:26;41.63;;;23.52;;
71236;SDS011;58984;51.960;5.582;2024-03-08T02:21:52;39.40;;;22.85;;
71236;SDS011;58984;51.960;5.582;2024-03-08T02:24:18;36.22;;;22.92;;
71236;SDS011;58984;51.960;5.582;2024-03-08T02:26:44;33.65;;;22.48;;
71236;SDS011;58984;51.960;5.582;2024-03-08T02:29:10;41.33;;;22.65;;
71236;SDS011;58984;51.960;5.582;2024-03-08T02:31:36;38.95;;;23.15;;
71236;SDS011;58984;51.960;5.582;2024-03-08T02:34:04;34.88;;;23.63;;
71236;SDS011;58984;51.960;5.582;2024-03-08T02:36:30;38.90;;;22.98;;
71236;SDS011;58984;51.960;5.582;2024-03-08T02:39:00;36.53;;;23.30;;
71236;SDS011;58984;51.960;5.582;2024-03-08T02:41:30;34.65;;;22.88;;
71236;SDS011;58984;51.960;5.582;2024-03-08T02:43:55;36.80;;;23.55;;
71236;SDS011;58984;51.960;5.582;2024-03-08T02:46:21;33.78;;;23.48;;
71236;SDS011;58984;51.960;5.582;2024-03-08T02:48:47;37.38;;;22.60;;
71236;SDS011;58984;51.960;5.582;2024-03-08T02:51:13;34.05;;;23.00;;
71236;SDS011;58984;51.960;5.582;2024-03-08T02:53:41;35.45;;;22.83;;
71236;SDS011;58984;51.960;5.582;2024-03-08T02:56:08;40.13;;;23.75;;
71236;SDS011;58984;51.960;5.582;2024-03-08T02:58:37;41.70;;;24.30;;
71236;SDS011;58984;51.960;5.582;2024-03-08T03:01:03;37.53;;;23.33;;
71236;SDS011;58984;51.960;5.582;2024-03-08T03:03:29;40.50;;;23.20;;
71236;SDS011;58984;51.960;5.582;2024-03-08T03:05:54;37.83;;;23.90;;
71236;SDS011;58984;51.960;5.582;2024-03-08T03:08:20;38.78;;;23.95;;
71236;SDS011;58984;51.960;5.582;2024-03-08T03:10:46;33.85;;;23.30;;
71236;SDS011;58984;51.960;5.582;2024-03-08T03:13:12;41.40;;;25.05;;
71236;SDS011;58984;51.960;5.582;2024-03-08T03:15:39;37.50;;;23.88;;
71236;SDS011;58984;51.960;5.582;2024-03-08T03:18:06;39.92;;;24.70;;
71236;SDS011;58984;51.960;5.582;2024-03-08T03:20:33;40.13;;;24.10;;
71236;SDS011;58984;51.960;5.582;2024-03-08T03:23:02;39.47;;;23.92;;
71236;SDS011;58984;51.960;5.582;2024-03-08T03:25:28;38.33;;;24.40;;
71236;SDS011;58984;51.960;5.582;2024-03-08T03:27:58;36.17;;;24.00;;
71236;SDS011;58984;51.960;5.582;2024-03-08T03:30:24;42.03;;;25.10;;
71236;SDS011;58984;51.960;5.582;2024-03-08T03:32:52;42.63;;;24.98;;
71236;SDS011;58984;51.960;5.582;2024-03-08T03:35:19;36.83;;;23.75;;
71236;SDS011;58984;51.960;5.582;2024-03-08T03:37:46;42.35;;;24.88;;
71236;SDS011;58984;51.960;5.582;2024-03-08T03:40:34;37.08;;;24.40;;
71236;SDS011;58984;51.960;5.582;2024-03-08T03:45:29;37.53;;;23.70;;
71236;SDS011;58984;51.960;5.582;2024-03-08T03:47:59;37.08;;;24.48;;
71236;SDS011;58984;51.960;5.582;2024-03-08T03:50:29;32.65;;;24.02;;
71236;SDS011;58984;51.960;5.582;2024-03-08T03:52:55;40.30;;;24.08;;
71236;SDS011;58984;51.960;5.582;2024-03-08T03:55:20;44.05;;;25.35;;
71236;SDS011;58984;51.960;5.582;2024-03-08T03:57:47;42.70;;;25.33;;
71236;SDS011;58984;51.960;5.582;2024-03-08T04:00:12;37.63;;;24.58;;
71236;SDS011;58984;51.960;5.582;2024-03-08T04:02:38;40.78;;;25.80;;
71236;SDS011;58984;51.960;5.582;2024-03-08T04:05:05;41.28;;;25.65;;
71236;SDS011;58984;51.960;5.582;2024-03-08T04:07:32;37.60;;;23.60;;
71236;SDS011;58984;51.960;5.582;2024-03-08T04:09:59;39.72;;;24.30;;
71236;SDS011;58984;51.960;5.582;2024-03-08T04:12:25;38.45;;;25.50;;
71236;SDS011;58984;51.960;5.582;2024-03-08T04:14:51;37.88;;;24.90;;
71236;SDS011;58984;51.960;5.582;2024-03-08T04:17:18;41.63;;;24.88;;
71236;SDS011;58984;51.960;5.582;2024-03-08T04:19:44;39.20;;;24.80;;
71236;SDS011;58984;51.960;5.582;2024-03-08T04:22:09;39.00;;;24.15;;
71236;SDS011;58984;51.960;5.582;2024-03-08T04:24:35;40.65;;;24.77;;
71236;SDS011;58984;51.960;5.582;2024-03-08T04:27:00;37.60;;;24.10;;
71236;SDS011;58984;51.960;5.582;2024-03-08T04:29:26;36.97;;;24.83;;
71236;SDS011;58984;51.960;5.582;2024-03-08T04:31:52;42.15;;;25.17;;
71236;SDS011;58984;51.960;5.582;2024-03-08T04:34:19;38.15;;;24.67;;
71236;SDS011;58984;51.960;5.582;2024-03-08T04:36:46;43.67;;;25.88;;
71236;SDS011;58984;51.960;5.582;2024-03-08T04:39:13;39.55;;;23.85;;
71236;SDS011;58984;51.960;5.582;2024-03-08T04:41:39;37.33;;;24.13;;
71236;SDS011;58984;51.960;5.582;2024-03-08T04:44:04;38.63;;;25.52;;
71236;SDS011;58984;51.960;5.582;2024-03-08T04:46:31;37.28;;;24.95;;
71236;SDS011;58984;51.960;5.582;2024-03-08T04:48:56;43.75;;;25.23;;
71236;SDS011;58984;51.960;5.582;2024-03-08T04:51:24;34.67;;;24.50;;
71236;SDS011;58984;51.960;5.582;2024-03-08T04:53:50;44.25;;;26.65;;
71236;SDS011;58984;51.960;5.582;2024-03-08T04:56:16;42.13;;;26.60;;
71236;SDS011;58984;51.960;5.582;2024-03-08T04:58:41;41.10;;;25.00;;
71236;SDS011;58984;51.960;5.582;2024-03-08T05:01:07;39.45;;;24.60;;
71236;SDS011;58984;51.960;5.582;2024-03-08T05:03:35;35.05;;;24.58;;
71236;SDS011;58984;51.960;5.582;2024-03-08T05:06:01;38.92;;;26.05;;
71236;SDS011;58984;51.960;5.582;2024-03-08T05:08:27;43.22;;;25.50;;
71236;SDS011;58984;51.960;5.582;2024-03-08T05:10:52;45.53;;;27.02;;
71236;SDS011;58984;51.960;5.582;2024-03-08T05:13:18;41.42;;;26.23;;
71236;SDS011;58984;51.960;5.582;2024-03-08T05:15:47;44.80;;;25.38;;
71236;SDS011;58984;51.960;5.582;2024-03-08T05:18:14;42.35;;;26.13;;
71236;SDS011;58984;51.960;5.582;2024-03-08T05:20:40;41.00;;;24.83;;
71236;SDS011;58984;51.960;5.582;2024-03-08T05:23:06;44.85;;;26.73;;
71236;SDS011;58984;51.960;5.582;2024-03-08T05:25:33;44.53;;;25.73;;
71236;SDS011;58984;51.960;5.582;2024-03-08T05:27:58;43.13;;;25.27;;
71236;SDS011;58984;51.960;5.582;2024-03-08T05:30:24;41.47;;;26.80;;
71236;SDS011;58984;51.960;5.582;2024-03-08T05:32:50;39.53;;;25.50;;
71236;SDS011;58984;51.960;5.582;2024-03-08T05:35:15;42.78;;;27.17;;
71236;SDS011;58984;51.960;5.582;2024-03-08T05:37:41;43.17;;;26.67;;
71236;SDS011;58984;51.960;5.582;2024-03-08T05:40:07;40.67;;;26.10;;
71236;SDS011;58984;51.960;5.582;2024-03-08T05:42:37;40.58;;;26.17;;
71236;SDS011;58984;51.960;5.582;2024-03-08T05:45:03;35.25;;;25.50;;
71236;SDS011;58984;51.960;5.582;2024-03-08T05:47:31;38.80;;;25.27;;
71236;SDS011;58984;51.960;5.582;2024-03-08T05:49:58;39.72;;;25.85;;
71236;SDS011;58984;51.960;5.582;2024-03-08T05:52:24;44.67;;;25.38;;
71236;SDS011;58984;51.960;5.582;2024-03-08T05:54:51;42.25;;;26.23;;
71236;SDS011;58984;51.960;5.582;2024-03-08T05:57:17;42.63;;;25.77;;
71236;SDS011;58984;51.960;5.582;2024-03-08T05:59:42;44.65;;;25.65;;
71236;SDS011;58984;51.960;5.582;2024-03-08T06:02:08;47.28;;;27.27;;
71236;SDS011;58984;51.960;5.582;2024-03-08T06:04:34;34.20;;;24.50;;
71236;SDS011;58984;51.960;5.582;2024-03-08T06:06:59;41.45;;;26.27;;
71236;SDS011;58984;51.960;5.582;2024-03-08T06:09:25;39.25;;;25.58;;
71236;SDS011;58984;51.960;5.582;2024-03-08T06:11:54;42.28;;;25.98;;
71236;SDS011;58984;51.960;5.582;2024-03-08T06:14:20;45.95;;;25.58;;
71236;SDS011;58984;51.960;5.582;2024-03-08T06:16:46;40.38;;;25.88;;
71236;SDS011;58984;51.960;5.582;2024-03-08T06:19:12;38.92;;;25.92;;
71236;SDS011;58984;51.960;5.582;2024-03-08T06:21:38;40.60;;;25.05;;
71236;SDS011;58984;51.960;5.582;2024-03-08T06:24:04;40.35;;;25.33;;
71236;SDS011;58984;51.960;5.582;2024-03-08T06:26:30;45.10;;;27.05;;
71236;SDS011;58984;51.960;5.582;2024-03-08T06:28:56;43.72;;;26.75;;
71236;SDS011;58984;51.960;5.582;2024-03-08T06:31:22;39.75;;;25.65;;
71236;SDS011;58984;51.960;5.582;2024-03-08T06:33:48;42.80;;;26.80;;
71236;SDS011;58984;51.960;5.582;2024-03-08T06:36:18;39.95;;;25.83;;
71236;SDS011;58984;51.960;5.582;2024-03-08T06:38:45;44.70;;;26.50;;
71236;SDS011;58984;51.960;5.582;2024-03-08T06:41:11;42.05;;;25.70;;
71236;SDS011;58984;51.960;5.582;2024-03-08T06:43:43;47.75;;;26.05;;
71236;SDS011;58984;51.960;5.582;2024-03-08T06:46:09;43.05;;;26.65;;
71236;SDS011;58984;51.960;5.582;2024-03-08T06:48:37;40.55;;;25.38;;
71236;SDS011;58984;51.960;5.582;2024-03-08T06:51:06;40.58;;;26.52;;
71236;SDS011;58984;51.960;5.582;2024-03-08T06:53:32;41.45;;;25.25;;
71236;SDS011;58984;51.960;5.582;2024-03-08T06:55:58;44.25;;;26.83;;
71236;SDS011;58984;51.960;5.582;2024-03-08T06:58:24;46.47;;;26.92;;
71236;SDS011;58984;51.960;5.582;2024-03-08T07:00:49;44.10;;;27.10;;
71236;SDS011;58984;51.960;5.582;2024-03-08T07:03:18;46.22;;;27.20;;
71236;SDS011;58984;51.960;5.582;2024-03-08T07:05:44;46.40;;;26.50;;
71236;SDS011;58984;51.960;5.582;2024-03-08T07:08:09;45.65;;;26.25;;
71236;SDS011;58984;51.960;5.582;2024-03-08T07:10:37;44.38;;;26.95;;
71236;SDS011;58984;51.960;5.582;2024-03-08T07:13:06;43.03;;;27.50;;
71236;SDS011;58984;51.960;5.582;2024-03-08T07:15:32;39.88;;;25.90;;
71236;SDS011;58984;51.960;5.582;2024-03-08T07:17:58;43.60;;;25.33;;
71236;SDS011;58984;51.960;5.582;2024-03-08T07:20:25;38.42;;;26.20;;
71236;SDS011;58984;51.960;5.582;2024-03-08T07:22:50;50.28;;;28.00;;
71236;SDS011;58984;51.960;5.582;2024-03-08T07:25:16;41.97;;;26.90;;
71236;SDS011;58984;51.960;5.582;2024-03-08T07:27:42;38.03;;;25.38;;
71236;SDS011;58984;51.960;5.582;2024-03-08T07:30:08;35.92;;;25.33;;
71236;SDS011;58984;51.960;5.582;2024-03-08T07:32:37;47.30;;;27.60;;
71236;SDS011;58984;51.960;5.582;2024-03-08T07:35:03;46.13;;;27.08;;
71236;SDS011;58984;51.960;5.582;2024-03-08T07:37:29;48.13;;;26.08;;
71236;SDS011;58984;51.960;5.582;2024-03-08T07:40:03;42.92;;;26.88;;
71236;SDS011;58984;51.960;5.582;2024-03-08T07:42:29;46.30;;;26.77;;
71236;SDS011;58984;51.960;5.582;2024-03-08T07:44:55;45.90;;;27.00;;
71236;SDS011;58984;51.960;5.582;2024-03-08T07:47:20;46.45;;;27.15;;
71236;SDS011;58984;51.960;5.582;2024-03-08T07:49:46;43.22;;;26.83;;
71236;SDS011;58984;51.960;5.582;2024-03-08T07:52:12;41.00;;;27.35;;
71236;SDS011;58984;51.960;5.582;2024-03-08T07:54:40;45.10;;;27.20;;
71236;SDS011;58984;51.960;5.582;2024-03-08T07:57:06;45.75;;;27.40;;
71236;SDS011;58984;51.960;5.582;2024-03-08T07:59:32;42.25;;;27.13;;
71236;SDS011;58984;51.960;5.582;2024-03-08T08:01:58;43.83;;;26.98;;
71236;SDS011;58984;51.960;5.582;2024-03-08T08:04:24;41.47;;;26.33;;
71236;SDS011;58984;51.960;5.582;2024-03-08T08:06:51;44.35;;;27.65;;
71236;SDS011;58984;51.960;5.582;2024-03-08T08:09:17;47.22;;;27.40;;
71236;SDS011;58984;51.960;5.582;2024-03-08T08:11:53;45.47;;;28.08;;
71236;SDS011;58984;51.960;5.582;2024-03-08T08:14:22;44.40;;;27.77;;
71236;SDS011;58984;51.960;5.582;2024-03-08T08:16:47;48.92;;;29.33;;
71236;SDS011;58984;51.960;5.582;2024-03-08T08:19:15;41.80;;;26.80;;
71236;SDS011;58984;51.960;5.582;2024-03-08T08:21:41;45.28;;;28.00;;
71236;SDS011;58984;51.960;5.582;2024-03-08T08:24:07;41.70;;;26.80;;
71236;SDS011;58984;51.960;5.582;2024-03-08T08:26:32;48.08;;;27.77;;
71236;SDS011;58984;51.960;5.582;2024-03-08T08:28:59;47.97;;;28.00;;
71236;SDS011;58984;51.960;5.582;2024-03-08T08:31:24;52.50;;;27.77;;
71236;SDS011;58984;51.960;5.582;2024-03-08T08:33:51;47.17;;;28.17;;
71236;SDS011;58984;51.960;5.582;2024-03-08T08:36:22;48.47;;;29.10;;
71236;SDS011;58984;51.960;5.582;2024-03-08T08:38:49;44.70;;;26.77;;
71236;SDS011;58984;51.960;5.582;2024-03-08T08:41:14;45.63;;;26.83;;
71236;SDS011;58984;51.960;5.582;2024-03-08T08:43:42;43.33;;;27.02;;
71236;SDS011;58984;51.960;5.582;2024-03-08T08:46:09;43.83;;;25.98;;
71236;SDS011;58984;51.960;5.582;2024-03-08T08:48:38;43.63;;;26.60;;
71236;SDS011;58984;51.960;5.582;2024-03-08T08:51:06;42.60;;;27.20;;
71236;SDS011;58984;51.960;5.582;2024-03-08T08:53:37;41.13;;;27.33;;
71236;SDS011;58984;51.960;5.582;2024-03-08T08:56:05;45.28;;;27.23;;
71236;SDS011;58984;51.960;5.582;2024-03-08T08:58:32;42.05;;;26.95;;
71236;SDS011;58984;51.960;5.582;2024-03-08T09:00:58;48.33;;;26.60;;
71236;SDS011;58984;51.960;5.582;2024-03-08T09:03:24;46.42;;;27.63;;
71236;SDS011;58984;51.960;5.582;2024-03-08T09:05:52;42.38;;;25.58;;
71236;SDS011;58984;51.960;5.582;2024-03-08T09:08:18;43.53;;;25.33;;
71236;SDS011;58984;51.960;5.582;2024-03-08T09:10:44;42.35;;;26.08;;
71236;SDS011;58984;51.960;5.582;2024-03-08T09:13:09;44.10;;;26.55;;
71236;SDS011;58984;51.960;5.582;2024-03-08T09:15:36;40.38;;;27.02;;
71236;SDS011;58984;51.960;5.582;2024-03-08T09:18:05;45.20;;;26.38;;
71236;SDS011;58984;51.960;5.582;2024-03-08T09:20:31;43.15;;;26.27;;
71236;SDS011;58984;51.960;5.582;2024-03-08T09:22:57;41.60;;;25.92;;
71236;SDS011;58984;51.960;5.582;2024-03-08T09:25:23;41.38;;;26.38;;
71236;SDS011;58984;51.960;5.582;2024-03-08T09:27:48;43.15;;;27.13;;
71236;SDS011;58984;51.960;5.582;2024-03-08T09:30:14;42.38;;;27.10;;
71236;SDS011;58984;51.960;5.582;2024-03-08T09:32:40;47.25;;;27.63;;
71236;SDS011;58984;51.960;5.582;2024-03-08T09:35:08;41.35;;;24.88;;
71236;SDS011;58984;51.960;5.582;2024-03-08T09:37:34;46.45;;;27.25;;
71236;SDS011;58984;51.960;5.582;2024-03-08T09:40:00;38.58;;;24.88;;
71236;SDS011;58984;51.960;5.582;2024-03-08T09:42:29;44.95;;;27.65;;
71236;SDS011;58984;51.960;5.582;2024-03-08T09:44:57;44.65;;;25.98;;
71236;SDS011;58984;51.960;5.582;2024-03-08T09:47:24;45.03;;;27.17;;
71236;SDS011;58984;51.960;5.582;2024-03-08T09:49:54;40.65;;;25.45;;
71236;SDS011;58984;51.960;5.582;2024-03-08T09:52:19;37.35;;;24.10;;
71236;SDS011;58984;51.960;5.582;2024-03-08T09:54:45;38.50;;;25.17;;
71236;SDS011;58984;51.960;5.582;2024-03-08T09:57:11;37.65;;;24.65;;
71236;SDS011;58984;51.960;5.582;2024-03-08T09:59:37;42.10;;;25.13;;
71236;SDS011;58984;51.960;5.582;2024-03-08T10:02:03;36.42;;;25.13;;
71236;SDS011;58984;51.960;5.582;2024-03-08T10:04:29;43.60;;;25.52;;
71236;SDS011;58984;51.960;5.582;2024-03-08T10:06:58;44.67;;;26.10;;
71236;SDS011;58984;51.960;5.582;2024-03-08T10:09:27;40.05;;;25.85;;
71236;SDS011;58984;51.960;5.582;2024-03-08T10:11:55;45.25;;;24.60;;
71236;SDS011;58984;51.960;5.582;2024-03-08T10:14:21;40.70;;;24.85;;
71236;SDS011;58984;51.960;5.582;2024-03-08T10:16:46;41.70;;;25.63;;
71236;SDS011;58984;51.960;5.582;2024-03-08T10:19:12;43.70;;;25.65;;
71236;SDS011;58984;51.960;5.582;2024-03-08T10:21:50;39.60;;;24.70;;
71236;SDS011;58984;51.960;5.582;2024-03-08T10:24:21;43.28;;;23.75;;
71236;SDS011;58984;51.960;5.582;2024-03-08T10:26:51;47.42;;;23.92;;
71236;SDS011;58984;51.960;5.582;2024-03-08T10:29:18;35.78;;;24.98;;
71236;SDS011;58984;51.960;5.582;2024-03-08T10:31:44;44.95;;;24.98;;
71236;SDS011;58984;51.960;5.582;2024-03-08T10:34:10;40.13;;;24.23;;
71236;SDS011;58984;51.960;5.582;2024-03-08T10:36:35;36.60;;;24.30;;
71236;SDS011;58984;51.960;5.582;2024-03-08T10:39:06;40.25;;;22.67;;
71236;SDS011;58984;51.960;5.582;2024-03-08T10:41:45;35.53;;;22.73;;
71236;SDS011;58984;51.960;5.582;2024-03-08T10:49:30;41.78;;;22.08;;
71236;SDS011;58984;51.960;5.582;2024-03-08T10:52:02;35.17;;;21.92;;
71236;SDS011;58984;51.960;5.582;2024-03-08T10:54:28;34.65;;;21.95;;
71236;SDS011;58984;51.960;5.582;2024-03-08T10:56:56;33.60;;;21.77;;
71236;SDS011;58984;51.960;5.582;2024-03-08T10:59:22;34.75;;;22.70;;
71236;SDS011;58984;51.960;5.582;2024-03-08T11:01:49;33.33;;;20.83;;
71236;SDS011;58984;51.960;5.582;2024-03-08T11:04:16;39.47;;;22.75;;
71236;SDS011;58984;51.960;5.582;2024-03-08T11:06:45;27.92;;;20.05;;
71236;SDS011;58984;51.960;5.582;2024-03-08T11:12:18;32.03;;;19.92;;
71236;SDS011;58984;51.960;5.582;2024-03-08T11:14:45;37.95;;;22.92;;
71236;SDS011;58984;51.960;5.582;2024-03-08T11:17:14;34.30;;;21.25;;
71236;SDS011;58984;51.960;5.582;2024-03-08T11:20:03;29.73;;;20.90;;
71236;SDS011;58984;51.960;5.582;2024-03-08T11:25:37;30.85;;;19.70;;
71236;SDS011;58984;51.960;5.582;2024-03-08T11:33:24;35.35;;;19.67;;
71236;SDS011;58984;51.960;5.582;2024-03-08T11:38:41;34.50;;;20.98;;
71236;SDS011;58984;51.960;5.582;2024-03-08T11:41:09;36.17;;;20.48;;
71236;SDS011;58984;51.960;5.582;2024-03-08T11:43:39;37.90;;;20.23;;
71236;SDS011;58984;51.960;5.582;2024-03-08T11:46:10;31.13;;;19.02;;
71236;SDS011;58984;51.960;5.582;2024-03-08T11:48:40;27.70;;;18.77;;
71236;SDS011;58984;51.960;5.582;2024-03-08T11:51:12;27.08;;;18.38;;
71236;SDS011;58984;51.960;5.582;2024-03-08T11:53:40;28.13;;;18.88;;
71236;SDS011;58984;51.960;5.582;2024-03-08T11:56:09;28.40;;;18.65;;
71236;SDS011;58984;51.960;5.582;2024-03-08T11:58:36;32.85;;;19.95;;
71236;SDS011;58984;51.960;5.582;2024-03-08T12:01:05;38.67;;;20.35;;
71236;SDS011;58984;51.960;5.582;2024-03-08T12:03:41;31.67;;;20.30;;
71236;SDS011;58984;51.960;5.582;2024-03-08T12:06:10;30.97;;;19.70;;
71236;SDS011;58984;51.960;5.582;2024-03-08T12:08:38;32.42;;;18.52;;
71236;SDS011;58984;51.960;5.582;2024-03-08T12:11:04;30.98;;;18.73;;
71236;SDS011;58984;51.960;5.582;2024-03-08T12:13:31;30.90;;;19.08;;
71236;SDS011;58984;51.960;5.582;2024-03-08T12:15:59;31.25;;;16.27;;
71236;SDS011;58984;51.960;5.582;2024-03-08T12:18:25;25.15;;;16.77;;
71236;SDS011;58984;51.960;5.582;2024-03-08T12:21:03;24.85;;;16.50;;
71236;SDS011;58984;51.960;5.582;2024-03-08T12:23:36;28.58;;;17.75;;
71236;SDS011;58984;51.960;5.582;2024-03-08T12:26:17;24.67;;;15.82;;
71236;SDS011;58984;51.960;5.582;2024-03-08T12:28:48;26.52;;;16.27;;
71236;SDS011;58984;51.960;5.582;2024-03-08T12:31:14;24.02;;;15.52;;
71236;SDS011;58984;51.960;5.582;2024-03-08T12:36:24;26.95;;;14.75;;
71236;SDS011;58984;51.960;5.582;2024-03-08T12:38:50;25.35;;;16.27;;
71236;SDS011;58984;51.960;5.582;2024-03-08T12:41:19;26.42;;;16.10;;
71236;SDS011;58984;51.960;5.582;2024-03-08T12:43:46;26.95;;;16.77;;
71236;SDS011;58984;51.960;5.582;2024-03-08T12:46:14;27.15;;;15.50;;
71236;SDS011;58984;51.960;5.582;2024-03-08T12:48:40;26.52;;;15.90;;
71236;SDS011;58984;51.960;5.582;2024-03-08T12:51:06;25.67;;;15.65;;
71236;SDS011;58984;51.960;5.582;2024-03-08T12:53:32;26.92;;;15.93;;
71236;SDS011;58984;51.960;5.582;2024-03-08T12:55:58;25.70;;;16.30;;
71236;SDS011;58984;51.960;5.582;2024-03-08T12:58:24;29.85;;;16.58;;
71236;SDS011;58984;51.960;5.582;2024-03-08T13:00:51;24.15;;;15.80;;
71236;SDS011;58984;51.960;5.582;2024-03-08T13:03:17;28.70;;;17.13;;
71236;SDS011;58984;51.960;5.582;2024-03-08T13:05:43;22.00;;;15.45;;
71236;SDS011;58984;51.960;5.582;2024-03-08T13:08:08;27.02;;;16.00;;
71236;SDS011;58984;51.960;5.582;2024-03-08T13:10:41;26.00;;;16.58;;
71236;SDS011;58984;51.960;5.582;2024-03-08T13:13:08;23.00;;;16.63;;
71236;SDS011;58984;51.960;5.582;2024-03-08T13:15:35;22.23;;;15.48;;
71236;SDS011;58984;51.960;5.582;2024-03-08T13:18:01;28.27;;;16.38;;
71236;SDS011;58984;51.960;5.582;2024-03-08T13:20:26;32.92;;;16.90;;
71236;SDS011;58984;51.960;5.582;2024-03-08T13:22:53;28.52;;;17.25;;
71236;SDS011;58984;51.960;5.582;2024-03-08T13:25:20;29.10;;;17.38;;
71236;SDS011;58984;51.960;5.582;2024-03-08T13:27:46;25.42;;;15.90;;
71236;SDS011;58984;51.960;5.582;2024-03-08T13:30:12;31.55;;;17.98;;
71236;SDS011;58984;51.960;5.582;2024-03-08T13:32:42;25.75;;;16.67;;
71236;SDS011;58984;51.960;5.582;2024-03-08T13:35:11;28.05;;;17.90;;
71236;SDS011;58984;51.960;5.582;2024-03-08T13:37:41;25.30;;;16.20;;
71236;SDS011;58984;51.960;5.582;2024-03-08T13:40:07;29.23;;;17.23;;
71236;SDS011;58984;51.960;5.582;2024-03-08T13:42:38;24.47;;;16.20;;
71236;SDS011;58984;51.960;5.582;2024-03-08T13:45:08;24.40;;;16.25;;
71236;SDS011;58984;51.960;5.582;2024-03-08T13:47:40;24.48;;;16.63;;
71236;SDS011;58984;51.960;5.582;2024-03-08T13:50:07;29.48;;;17.30;;
71236;SDS011;58984;51.960;5.582;2024-03-08T13:52:36;22.48;;;15.35;;
71236;SDS011;58984;51.960;5.582;2024-03-08T13:55:05;27.15;;;16.95;;
71236;SDS011;58984;51.960;5.582;2024-03-08T13:57:32;24.23;;;16.55;;
71236;SDS011;58984;51.960;5.582;2024-03-08T13:59:58;24.02;;;15.82;;
71236;SDS011;58984;51.960;5.582;2024-03-08T14:02:24;28.42;;;16.42;;
71236;SDS011;58984;51.960;5.582;2024-03-08T14:04:54;27.48;;;16.77;;
71236;SDS011;58984;51.960;5.582;2024-03-08T14:07:20;26.85;;;16.73;;
71236;SDS011;58984;51.960;5.582;2024-03-08T14:09:46;28.95;;;17.85;;
71236;SDS011;58984;51.960;5.582;2024-03-08T14:12:12;28.63;;;17.60;;
71236;SDS011;58984;51.960;5.582;2024-03-08T14:14:38;24.42;;;16.85;;
71236;SDS011;58984;51.960;5.582;2024-03-08T14:17:07;27.50;;;17.88;;
71236;SDS011;58984;51.960;5.582;2024-03-08T14:19:35;28.83;;;18.23;;
71236;SDS011;58984;51.960;5.582;2024-03-08T14:22:01;27.40;;;18.25;;
71236;SDS011;58984;51.960;5.582;2024-03-08T14:24:29;31.77;;;18.00;;
71236;SDS011;58984;51.960;5.582;2024-03-08T14:26:55;28.45;;;18.35;;
71236;SDS011;58984;51.960;5.582;2024-03-08T14:29:23;29.58;;;19.48;;
71236;SDS011;58984;51.960;5.582;2024-03-08T14:31:54;27.90;;;18.25;;
71236;SDS011;58984;51.960;5.582;2024-03-08T14:34:27;29.92;;;18.42;;
71236;SDS011;58984;51.960;5.582;2024-03-08T14:36:54;28.00;;;17.70;;
71236;SDS011;58984;51.960;5.582;2024-03-08T14:39:20;29.23;;;17.73;;
71236;SDS011;58984;51.960;5.582;2024-03-08T14:41:50;29.73;;;18.33;;
71236;SDS011;58984;51.960;5.582;2024-03-08T14:44:18;28.75;;;18.33;;